Decoded Metar for KHBR (HOBART in OK, USA) (IATA:HBR) | Meteo·Mobile Aviation Weather
aviador You're here:

KHBR Decoded Metar

HOBART in OK, USA
Report Time2019-01-21 22:53:00
UTC Time2019-01-21 23:43:08
Flight Rules vfr VFR
Wind180° at 24 Gusting to 33 kt
W.Decomp.*RWY 17: 24.0 kt HW 1.3 kt RCW
RWY 21: 19.2 kt HW 14.4 kt LCW
RWY 12: 14.4 kt HW 19.2 kt RCW
W.Rank180° ranks 1
Current wind is above 180° avg. (13.3)
Visibility9999 m
Phenomena:N/A
Clouds:N/A
Expected CloudBase > 4,800 ft AGL from Temp-Dew spread
CeilingNone
Temp14°C (ISA +2)
Dew Point02°C (44% RH)
AAT3.7°C
QNH1006 hPa
Density Alt2,136 ft
Elevation1,552 ft
Report Wrong Elevation
Raw Report
KHBR 212253Z AUTO 18024G33KT 10SM CLR 14/02 A2970 RMK AO2 PK WND
18037/2212 SLP057 T01390017=

Extra information for KHBR:More info

Metar Taf Metar & Taf Last 4 Metars F.Rules Stats Wind Profile Meteogram Temp Stats Airport Information Weather charts Add Link Nearby VenuesMetar ALERT Operation Metar Decoded Social comments

AIRNAV info for KHBR